createdAt,value
2019-04-28T00:01:57.921Z,1.60
2019-04-28T00:04:26.403Z,1.43
2019-04-28T00:06:54.977Z,1.50
2019-04-28T00:09:23.515Z,1.87
2019-04-28T00:11:51.968Z,1.60
2019-04-28T00:14:21.918Z,2.00
2019-04-28T00:16:51.170Z,1.60
2019-04-28T00:19:21.064Z,1.63
2019-04-28T00:21:51.683Z,1.50
2019-04-28T00:24:38.375Z,1.50
2019-04-28T00:27:06.994Z,1.70
2019-04-28T00:29:40.767Z,1.77
2019-04-28T00:32:06.099Z,1.53
2019-04-28T00:34:34.712Z,1.40
2019-04-28T00:37:04.791Z,1.40
2019-04-28T00:39:33.278Z,1.60
2019-04-28T00:42:03.331Z,1.60
2019-04-28T00:44:32.104Z,1.37
2019-04-28T00:47:01.130Z,1.43
2019-04-28T00:49:31.601Z,1.67
2019-04-28T00:52:00.704Z,1.40
2019-04-28T00:54:31.716Z,1.33
2019-04-28T00:57:01.479Z,1.30
2019-04-28T00:59:31.584Z,1.30
2019-04-28T01:02:01.753Z,1.30
2019-04-28T01:04:31.041Z,1.00
2019-04-28T01:07:01.649Z,1.10
2019-04-28T01:09:31.597Z,1.10
2019-04-28T01:12:01.804Z,1.20
2019-04-28T01:14:31.008Z,1.30
2019-04-28T01:17:09.862Z,1.10
2019-04-28T01:19:52.123Z,1.10
2019-04-28T01:22:20.663Z,1.00
2019-04-28T01:24:49.694Z,1.27
2019-04-28T01:27:31.951Z,1.03
2019-04-28T01:30:07.919Z,1.13
2019-04-28T01:32:36.384Z,1.40
2019-04-28T01:35:05.969Z,1.03
2019-04-28T01:37:34.590Z,1.10
2019-04-28T01:40:04.356Z,1.13
2019-04-28T01:42:32.849Z,1.10
2019-04-28T01:45:01.293Z,1.40
2019-04-28T01:47:30.523Z,1.10
2019-04-28T01:50:00.199Z,1.03
2019-04-28T01:52:30.286Z,1.00
2019-04-28T01:55:00.481Z,1.10
2019-04-28T01:57:29.974Z,1.10
2019-04-28T01:59:59.772Z,1.20
2019-04-28T02:02:30.089Z,1.00
2019-04-28T02:04:59.939Z,0.90
2019-04-28T02:07:32.645Z,1.00
2019-04-28T02:10:00.759Z,1.30
2019-04-28T02:12:30.411Z,1.00
2019-04-28T02:15:00.637Z,0.90
2019-04-28T02:17:30.494Z,1.00
2019-04-28T02:20:00.667Z,0.93
2019-04-28T02:22:31.837Z,1.20
2019-04-28T02:25:00.426Z,1.10
2019-04-28T02:27:30.177Z,0.90
2019-04-28T02:30:00.064Z,1.00
2019-04-28T02:32:30.827Z,1.50
2019-04-28T02:35:01.247Z,1.10
2019-04-28T02:37:30.533Z,1.13
2019-04-28T02:40:02.845Z,1.10
2019-04-28T02:42:30.925Z,1.30
2019-04-28T02:45:00.509Z,1.30
2019-04-28T02:47:33.656Z,1.30
2019-04-28T02:50:04.126Z,1.27
2019-04-28T02:52:51.939Z,1.57
2019-04-28T02:55:21.340Z,1.50
2019-04-28T02:57:51.711Z,1.70
2019-04-28T03:00:21.577Z,1.60
2019-04-28T03:02:51.334Z,1.40
2019-04-28T03:05:21.520Z,1.60
2019-04-28T03:07:51.502Z,1.60
2019-04-28T03:10:21.474Z,1.30
2019-04-28T03:12:51.640Z,1.50
2019-04-28T03:15:20.685Z,1.40
2019-04-28T03:17:52.516Z,1.37
2019-04-28T03:20:21.051Z,1.60
2019-04-28T03:22:51.054Z,1.63
2019-04-28T03:25:40.536Z,1.40
2019-04-28T03:28:15.457Z,1.67
2019-04-28T03:30:45.573Z,1.70
2019-04-28T03:33:18.805Z,1.60
2019-04-28T03:35:46.047Z,1.43
2019-04-28T03:38:14.538Z,1.60
2019-04-28T03:40:43.075Z,1.60
2019-04-28T03:43:14.452Z,1.50
2019-04-28T03:45:43.092Z,1.50
2019-04-28T03:48:11.632Z,1.80
2019-04-28T03:50:41.371Z,1.57
2019-04-28T03:53:11.084Z,1.70
2019-04-28T03:55:41.622Z,1.50
2019-04-28T03:58:10.443Z,1.63
2019-04-28T04:00:40.812Z,1.50
2019-04-28T04:03:10.943Z,1.50
2019-04-28T04:05:40.634Z,2.43
2019-04-28T04:08:10.908Z,1.30
2019-04-28T04:10:40.824Z,1.63
2019-04-28T04:13:13.717Z,1.70
2019-04-28T04:15:43.788Z,2.10
2019-04-28T04:20:42.218Z,1.40
2019-04-28T04:23:11.459Z,1.67
2019-04-28T04:25:41.646Z,1.53
2019-04-28T04:28:10.811Z,1.70
2019-04-28T04:30:40.908Z,1.60
2019-04-28T04:33:11.085Z,1.27
2019-04-28T04:35:41.212Z,1.73
2019-04-28T04:38:10.508Z,1.60
2019-04-28T04:40:41.338Z,1.10
2019-04-28T04:43:11.197Z,1.17
2019-04-28T04:45:40.642Z,1.50
2019-04-28T04:48:11.668Z,1.60
2019-04-28T04:50:41.156Z,1.47
2019-04-28T04:53:11.038Z,1.23
2019-04-28T04:55:40.798Z,1.20
2019-04-28T04:58:10.778Z,1.27
2019-04-28T05:00:43.322Z,1.23
2019-04-28T05:03:12.994Z,1.20
2019-04-28T05:05:43.009Z,1.20
2019-04-28T05:08:15.375Z,1.30
2019-04-28T05:10:41.671Z,1.47
2019-04-28T05:13:10.371Z,1.40
2019-04-28T05:15:40.070Z,1.40
2019-04-28T05:18:10.174Z,1.43
2019-04-28T05:20:40.416Z,1.40
2019-04-28T05:23:10.917Z,1.30
2019-04-28T05:25:41.052Z,1.40
2019-04-28T05:28:10.447Z,1.00
2019-04-28T05:30:42.721Z,1.60
2019-04-28T05:33:11.014Z,1.40
2019-04-28T05:35:39.739Z,1.40
2019-04-28T05:38:09.910Z,1.80
2019-04-28T05:40:39.890Z,1.67
2019-04-28T05:43:10.582Z,1.93
2019-04-28T05:45:39.753Z,1.20
2019-04-28T05:48:09.529Z,1.60
2019-04-28T05:50:40.315Z,1.57
2019-04-28T05:53:10.822Z,1.37
2019-04-28T05:55:41.844Z,1.90
2019-04-28T05:58:27.638Z,2.30
2019-04-28T06:01:10.262Z,1.63
2019-04-28T06:03:40.520Z,1.30
2019-04-28T06:06:10.235Z,1.03
2019-04-28T06:08:56.657Z,1.13
2019-04-28T06:11:35.585Z,1.37
2019-04-28T06:14:04.232Z,1.20
2019-04-28T06:16:32.803Z,1.30
2019-04-28T06:19:01.312Z,1.30
2019-04-28T06:21:29.958Z,1.20
2019-04-28T06:23:58.914Z,1.33
2019-04-28T06:26:27.458Z,1.40
2019-04-28T06:28:55.908Z,1.20
2019-04-28T06:31:24.411Z,1.10
2019-04-28T06:33:53.130Z,1.50
2019-04-28T06:36:21.674Z,1.60
2019-04-28T06:38:50.175Z,1.30
2019-04-28T06:41:18.665Z,1.30
2019-04-28T06:43:47.117Z,1.40
2019-04-28T06:46:15.652Z,1.40
2019-04-28T06:48:44.205Z,1.20
2019-04-28T06:51:12.989Z,1.63
2019-04-28T06:53:41.699Z,1.70
2019-04-28T06:56:10.428Z,1.40
2019-04-28T06:58:39.018Z,1.77
2019-04-28T07:01:07.615Z,1.40
2019-04-28T07:03:36.157Z,1.53
2019-04-28T07:06:04.976Z,1.40
2019-04-28T07:08:33.491Z,1.50
2019-04-28T07:11:02.063Z,1.20
2019-04-28T07:13:31.167Z,1.07
2019-04-28T07:15:59.837Z,1.20
2019-04-28T07:18:28.370Z,1.17
2019-04-28T07:20:58.576Z,1.00
2019-04-28T07:23:27.638Z,1.10
2019-04-28T07:25:56.253Z,1.10
2019-04-28T07:28:24.715Z,1.40
2019-04-28T07:30:53.455Z,1.00
2019-04-28T07:33:22.105Z,1.00
2019-04-28T07:35:50.584Z,0.90
2019-04-28T07:38:19.374Z,1.30
2019-04-28T07:40:48.024Z,1.20
2019-04-28T07:43:16.759Z,1.40
2019-04-28T07:45:45.208Z,1.60
2019-04-28T07:48:13.922Z,1.30
2019-04-28T07:50:42.513Z,1.40
2019-04-28T07:53:15.478Z,1.33
2019-04-28T07:55:43.947Z,1.30
2019-04-28T07:58:12.479Z,1.33
2019-04-28T08:00:41.480Z,1.17
2019-04-28T08:03:10.148Z,1.20
2019-04-28T08:05:38.697Z,1.20
2019-04-28T08:08:07.180Z,1.30
2019-04-28T08:10:35.700Z,1.27
2019-04-28T08:13:04.577Z,1.10
2019-04-28T08:15:33.165Z,1.10
2019-04-28T08:18:01.632Z,1.10
2019-04-28T08:20:30.103Z,1.17
2019-04-28T08:22:58.552Z,0.90
2019-04-28T08:25:27.100Z,1.10
2019-04-28T08:27:55.539Z,1.07
2019-04-28T08:30:24.020Z,0.90
2019-04-28T08:32:59.165Z,1.13
2019-04-28T08:35:27.842Z,0.93
2019-04-28T08:37:56.430Z,0.87
2019-04-28T08:40:24.985Z,0.90
2019-04-28T08:42:53.544Z,1.00
2019-04-28T08:45:22.155Z,1.17
2019-04-28T08:47:50.694Z,1.00
2019-04-28T08:50:19.140Z,1.00
2019-04-28T08:52:47.619Z,1.27
2019-04-28T08:55:16.261Z,1.20
2019-04-28T08:57:44.823Z,1.00
2019-04-28T09:00:14.850Z,0.93
2019-04-28T09:02:43.466Z,1.17
2019-04-28T09:05:12.034Z,1.10
2019-04-28T09:07:40.559Z,1.10
2019-04-28T09:10:09.266Z,1.40
2019-04-28T09:12:38.335Z,1.23
2019-04-28T09:15:07.881Z,1.30
2019-04-28T09:17:36.412Z,1.20
2019-04-28T09:20:08.478Z,1.30
2019-04-28T09:22:37.099Z,1.50
2019-04-28T09:25:06.928Z,1.27
2019-04-28T09:27:35.537Z,1.40
2019-04-28T09:30:06.926Z,1.30
2019-04-28T09:32:35.721Z,1.70
2019-04-28T09:35:06.024Z,1.70
2019-04-28T09:37:34.956Z,1.87
2019-04-28T09:40:10.768Z,1.77
2019-04-28T09:42:43.667Z,1.80
2019-04-28T09:45:22.709Z,1.90
2019-04-28T09:47:51.324Z,2.07
2019-04-28T09:50:20.177Z,2.47
2019-04-28T09:52:48.990Z,2.03
2019-04-28T09:55:17.455Z,2.20
2019-04-28T09:57:46.071Z,2.30
2019-04-28T10:00:15.031Z,2.40
2019-04-28T10:02:43.547Z,1.87
2019-04-28T10:05:12.356Z,2.40
2019-04-28T10:07:40.931Z,2.77
2019-04-28T10:10:10.284Z,2.57
2019-04-28T10:12:39.245Z,2.30
2019-04-28T10:15:09.244Z,2.57
2019-04-28T10:17:39.285Z,2.90
2019-04-28T10:20:09.417Z,2.63
2019-04-28T10:22:38.037Z,2.43
2019-04-28T10:25:08.603Z,3.03
2019-04-28T10:27:37.116Z,2.50
2019-04-28T10:30:09.254Z,2.90
2019-04-28T10:32:38.041Z,3.17
2019-04-28T10:35:08.952Z,3.10
2019-04-28T10:37:37.932Z,2.93
2019-04-28T10:40:27.979Z,2.83
2019-04-28T10:42:58.747Z,2.90
2019-04-28T10:45:32.228Z,3.00
2019-04-28T10:48:01.075Z,2.73
2019-04-28T10:50:29.772Z,2.90
2019-04-28T10:52:58.837Z,2.57
2019-04-28T10:55:31.417Z,4.10
2019-04-28T10:58:00.491Z,3.40
2019-04-28T11:00:30.791Z,3.40
2019-04-28T11:02:59.579Z,2.90
2019-04-28T11:05:30.236Z,3.57
2019-04-28T11:07:59.137Z,3.37
2019-04-28T11:10:30.769Z,3.80
2019-04-28T11:12:59.331Z,3.53
2019-04-28T11:15:32.734Z,3.07
2019-04-28T11:18:01.432Z,3.70
2019-04-28T11:20:29.893Z,4.00
2019-04-28T11:22:58.437Z,3.20
2019-04-28T11:25:26.923Z,3.73
2019-04-28T11:27:55.617Z,3.60
2019-04-28T11:30:24.895Z,3.50
2019-04-28T11:33:07.321Z,3.47
2019-04-28T11:35:37.875Z,3.50
2019-04-28T11:38:06.533Z,3.23
2019-04-28T11:40:35.145Z,3.07
2019-04-28T11:43:03.800Z,3.30
2019-04-28T11:45:32.811Z,3.00
2019-04-28T11:48:01.493Z,2.80
2019-04-28T11:50:30.153Z,2.93
2019-04-28T11:52:58.751Z,3.00
2019-04-28T11:55:27.316Z,2.67
2019-04-28T11:57:55.977Z,2.30
2019-04-28T12:00:34.962Z,2.77
2019-04-28T12:03:04.041Z,3.03
2019-04-28T12:05:40.327Z,2.83
2019-04-28T12:08:09.307Z,2.43
2019-04-28T12:10:48.414Z,2.83
2019-04-28T12:13:24.282Z,3.00
2019-04-28T12:16:13.131Z,3.07
2019-04-28T12:18:55.542Z,2.93
2019-04-28T12:21:43.404Z,3.43
2019-04-28T12:24:11.957Z,2.30
2019-04-28T12:26:40.544Z,2.50
2019-04-28T12:29:09.011Z,2.50
2019-04-28T12:31:37.740Z,3.47
2019-04-28T12:34:06.189Z,3.27
2019-04-28T12:36:34.749Z,2.80
2019-04-28T12:39:04.729Z,2.60
2019-04-28T12:41:33.256Z,2.93
2019-04-28T12:44:02.292Z,2.50
2019-04-28T12:46:30.776Z,2.77
2019-04-28T12:49:00.924Z,3.03
2019-04-28T12:51:29.597Z,2.47
2019-04-28T12:53:59.781Z,2.80
2019-04-28T12:56:28.262Z,2.70
2019-04-28T12:58:58.370Z,5.50
2019-04-28T13:01:28.742Z,3.87
2019-04-28T13:04:07.846Z,2.80
2019-04-28T13:06:36.349Z,2.40
2019-04-28T13:09:06.947Z,2.53
2019-04-28T13:11:35.772Z,2.57
2019-04-28T13:14:04.978Z,2.20
2019-04-28T13:16:33.621Z,2.37
2019-04-28T13:19:02.143Z,2.17
2019-04-28T13:21:31.026Z,2.37
2019-04-28T13:23:59.597Z,2.13
2019-04-28T13:26:28.307Z,2.10
2019-04-28T13:28:56.938Z,1.73
2019-04-28T13:31:25.511Z,2.40
2019-04-28T13:33:56.629Z,2.20
2019-04-28T13:36:24.534Z,2.13
2019-04-28T13:38:53.664Z,2.27
2019-04-28T13:41:22.501Z,1.97
2019-04-28T13:43:50.969Z,2.20
2019-04-28T13:46:19.868Z,1.87
2019-04-28T13:48:48.414Z,1.50
2019-04-28T13:51:16.994Z,2.10
2019-04-28T13:53:45.471Z,1.70
2019-04-28T13:56:14.118Z,1.80
2019-04-28T13:58:43.353Z,2.17
2019-04-28T14:01:31.631Z,1.80
2019-04-28T14:04:01.724Z,1.70
2019-04-28T14:06:31.850Z,1.80
2019-04-28T14:09:00.376Z,2.00
2019-04-28T14:11:28.866Z,2.40
2019-04-28T14:13:57.543Z,2.13
2019-04-28T14:16:26.110Z,2.07
2019-04-28T14:18:54.690Z,1.83
2019-04-28T14:21:23.185Z,2.20
2019-04-28T14:23:51.760Z,2.10
2019-04-28T14:26:20.262Z,1.63
2019-04-28T14:28:48.836Z,2.07
2019-04-28T14:31:17.837Z,2.20
2019-04-28T14:33:46.419Z,2.00
2019-04-28T14:36:15.141Z,2.00
2019-04-28T14:38:43.955Z,1.90
2019-04-28T14:41:12.458Z,2.10
2019-04-28T14:43:41.412Z,1.77
2019-04-28T14:46:09.991Z,1.90
2019-04-28T14:48:38.744Z,2.33
2019-04-28T14:51:07.384Z,2.07
2019-04-28T14:53:35.854Z,2.27
2019-04-28T14:56:07.193Z,2.00
2019-04-28T14:58:34.614Z,1.97
2019-04-28T15:01:07.463Z,1.77
2019-04-28T15:03:40.528Z,1.50
2019-04-28T15:06:13.463Z,1.33
2019-04-28T15:08:46.300Z,1.40
2019-04-28T15:11:16.505Z,1.63
2019-04-28T15:13:45.246Z,1.67
2019-04-28T15:16:14.018Z,1.70
2019-04-28T15:18:42.519Z,1.40
2019-04-28T15:21:11.011Z,1.80
2019-04-28T15:23:39.655Z,1.80
2019-04-28T15:26:08.275Z,1.50
2019-04-28T15:28:36.935Z,1.60
2019-04-28T15:31:05.652Z,1.93
2019-04-28T15:33:34.253Z,1.60
2019-04-28T15:36:02.743Z,1.40
2019-04-28T15:38:31.379Z,1.70
2019-04-28T15:40:59.844Z,1.93
2019-04-28T15:43:28.342Z,1.73
2019-04-28T15:45:57.242Z,1.50
2019-04-28T15:48:25.738Z,1.70
2019-04-28T15:50:54.291Z,1.33
2019-04-28T15:53:23.267Z,1.53
2019-04-28T15:55:53.369Z,1.00
2019-04-28T15:58:32.315Z,1.20
2019-04-28T16:01:01.304Z,1.20
2019-04-28T16:03:29.942Z,1.50
2019-04-28T16:06:00.000Z,1.00
2019-04-28T16:08:29.169Z,1.77
2019-04-28T16:10:57.722Z,1.40
2019-04-28T16:13:26.228Z,1.43
2019-04-28T16:15:54.939Z,1.20
2019-04-28T16:18:23.705Z,1.37
2019-04-28T16:20:52.194Z,1.50
2019-04-28T16:23:20.885Z,1.77
2019-04-28T16:25:49.975Z,1.57
2019-04-28T16:28:18.556Z,1.50
2019-04-28T16:30:47.427Z,1.50
2019-04-28T16:33:16.207Z,1.70
2019-04-28T16:35:44.908Z,1.80
2019-04-28T16:38:13.775Z,1.80
2019-04-28T16:40:45.742Z,1.80
2019-04-28T16:43:15.235Z,1.93
2019-04-28T16:45:43.916Z,2.00
2019-04-28T16:48:12.473Z,2.20
2019-04-28T16:50:41.032Z,5.47
2019-04-28T16:53:09.858Z,12.50
2019-04-28T16:55:47.228Z,9.10
2019-04-28T16:58:32.319Z,5.90
2019-04-28T17:01:02.597Z,3.30
2019-04-28T17:03:32.906Z,2.10
2019-04-28T17:06:01.399Z,1.90
2019-04-28T17:08:31.155Z,2.03
2019-04-28T17:10:59.897Z,2.03
2019-04-28T17:13:29.717Z,2.13
2019-04-28T17:15:58.460Z,2.00
2019-04-28T17:18:27.300Z,2.63
2019-04-28T17:20:55.830Z,2.10
2019-04-28T17:23:24.361Z,1.97
2019-04-28T17:25:53.164Z,1.97
2019-04-28T17:28:21.724Z,2.23
2019-04-28T17:30:50.206Z,2.13
2019-04-28T17:33:18.757Z,2.37
2019-04-28T17:35:50.736Z,2.20
2019-04-28T17:38:19.394Z,2.30
2019-04-28T17:40:47.876Z,2.27
2019-04-28T17:43:16.493Z,2.37
2019-04-28T17:45:45.016Z,1.87
2019-04-28T17:48:30.128Z,1.77
2019-04-28T17:50:58.648Z,1.93
2019-04-28T17:53:27.356Z,1.80
2019-04-28T17:55:55.852Z,2.00
2019-04-28T17:58:24.855Z,1.87
2019-04-28T18:00:55.013Z,1.90
2019-04-28T18:03:31.195Z,2.20
2019-04-28T18:06:17.488Z,1.70
2019-04-28T18:08:40.369Z,1.90
2019-04-28T18:11:08.912Z,1.83
2019-04-28T18:13:37.670Z,1.90
2019-04-28T18:16:08.088Z,2.00
2019-04-28T18:18:40.964Z,1.73
2019-04-28T18:21:09.528Z,2.10
2019-04-28T18:23:38.284Z,1.60
2019-04-28T18:26:06.916Z,1.90
2019-04-28T18:28:35.394Z,2.07
2019-04-28T18:31:15.510Z,2.10
2019-04-28T18:34:04.366Z,2.07
2019-04-28T18:36:51.773Z,2.33
2019-04-28T18:39:38.635Z,2.00
2019-04-28T18:42:08.809Z,1.90
2019-04-28T18:44:38.266Z,2.10
2019-04-28T18:47:06.774Z,2.20
2019-04-28T18:49:35.495Z,2.20
2019-04-28T18:52:04.278Z,1.93
2019-04-28T18:54:33.000Z,2.93
2019-04-28T18:57:01.446Z,2.80
2019-04-28T18:59:30.202Z,2.23
2019-04-28T19:02:00.337Z,2.37
2019-04-28T19:04:29.306Z,2.90
2019-04-28T19:07:04.834Z,2.80
2019-04-28T19:09:38.543Z,4.00
2019-04-28T19:12:20.478Z,4.70
2019-04-28T19:14:53.770Z,12.30
2019-04-28T19:17:35.646Z,8.43
2019-04-28T19:20:05.364Z,5.30
2019-04-28T19:22:35.498Z,3.30
2019-04-28T19:25:05.609Z,3.63
2019-04-28T19:27:34.663Z,3.00
2019-04-28T19:30:04.188Z,2.97
2019-04-28T19:32:32.761Z,3.50
2019-04-28T19:35:01.264Z,3.33
2019-04-28T19:37:30.049Z,3.60
2019-04-28T19:39:58.662Z,4.10
2019-04-28T19:42:27.793Z,3.40
2019-04-28T19:44:56.271Z,3.17
2019-04-28T19:47:25.844Z,3.03
2019-04-28T19:49:54.378Z,2.67
2019-04-28T19:52:23.225Z,2.53
2019-04-28T19:55:09.504Z,2.93
2019-04-28T19:57:45.378Z,2.33
2019-04-28T20:00:19.148Z,2.47
2019-04-28T20:02:47.915Z,2.57
2019-04-28T20:05:16.402Z,2.37
2019-04-28T20:07:45.214Z,2.80
2019-04-28T20:10:14.068Z,3.23
2019-04-28T20:12:42.771Z,3.53
2019-04-28T20:15:11.735Z,2.87
2019-04-28T20:17:40.987Z,2.73
2019-04-28T20:20:13.959Z,3.10
2019-04-28T20:22:42.924Z,2.90
2019-04-28T20:25:12.685Z,3.20
2019-04-28T20:27:41.306Z,3.70
2019-04-28T20:30:10.360Z,3.50
2019-04-28T20:32:47.627Z,3.50
2019-04-28T20:35:24.226Z,3.30
2019-04-28T20:37:57.419Z,3.60
2019-04-28T20:40:40.076Z,4.10
2019-04-28T20:43:15.447Z,4.40
2019-04-28T20:45:44.231Z,3.97
2019-04-28T20:48:12.715Z,3.90
2019-04-28T20:50:43.818Z,3.67
2019-04-28T20:53:12.381Z,3.37
2019-04-28T20:55:41.030Z,3.30
2019-04-28T20:58:09.724Z,2.90
2019-04-28T21:00:38.455Z,3.10
2019-04-28T21:03:07.091Z,3.87
2019-04-28T21:05:35.585Z,3.40
2019-04-28T21:08:04.193Z,3.43
2019-04-28T21:10:38.319Z,3.97
2019-04-28T21:13:04.705Z,3.70
2019-04-28T21:15:33.256Z,4.10
2019-04-28T21:18:01.833Z,3.07
2019-04-28T21:20:31.702Z,2.70
2019-04-28T21:23:00.248Z,3.13
2019-04-28T21:25:28.844Z,2.80
2019-04-28T21:27:57.528Z,3.33
2019-04-28T21:30:26.027Z,3.20
2019-04-28T21:32:54.625Z,3.27
2019-04-28T21:35:23.090Z,2.80
2019-04-28T21:37:51.776Z,2.80
2019-04-28T21:40:20.768Z,3.37
2019-04-28T21:43:03.059Z,3.77
2019-04-28T21:45:50.580Z,4.00
2019-04-28T21:48:20.689Z,3.67
2019-04-28T21:50:49.619Z,3.37
2019-04-28T21:53:18.501Z,3.50
2019-04-28T21:55:47.197Z,3.87
2019-04-28T21:58:15.767Z,3.57
2019-04-28T22:00:51.896Z,3.03
2019-04-28T22:03:20.499Z,2.90
2019-04-28T22:05:49.379Z,3.00
2019-04-28T22:08:18.223Z,3.70
2019-04-28T22:10:47.307Z,2.70
2019-04-28T22:13:15.999Z,2.97
2019-04-28T22:15:45.393Z,2.80
2019-04-28T22:18:13.995Z,2.80
2019-04-28T22:20:42.511Z,2.50
2019-04-28T22:23:19.043Z,3.10
2019-04-28T22:25:48.112Z,2.70
2019-04-28T22:28:16.859Z,2.70
2019-04-28T22:30:45.445Z,3.10
2019-04-28T22:33:14.025Z,2.23
2019-04-28T22:35:42.551Z,2.50
2019-04-28T22:38:11.057Z,2.33
2019-04-28T22:40:39.740Z,2.60
2019-04-28T22:43:08.455Z,2.53
2019-04-28T22:45:37.063Z,2.67
2019-04-28T22:48:06.930Z,2.30
2019-04-28T22:50:40.627Z,2.73
2019-04-28T22:53:09.102Z,2.47
2019-04-28T22:55:39.309Z,2.27
2019-04-28T22:58:10.042Z,2.70
2019-04-28T23:00:43.173Z,2.90
2019-04-28T23:03:16.543Z,2.73
2019-04-28T23:05:45.125Z,2.70
2019-04-28T23:08:14.025Z,3.50
2019-04-28T23:10:42.503Z,2.60
2019-04-28T23:13:11.083Z,2.70
2019-04-28T23:15:39.703Z,2.60
2019-04-28T23:18:08.235Z,2.60
2019-04-28T23:20:39.442Z,2.40
2019-04-28T23:23:09.565Z,3.00
2019-04-28T23:25:38.741Z,2.87
2019-04-28T23:28:07.568Z,2.83
2019-04-28T23:30:45.402Z,2.50
2019-04-28T23:33:33.675Z,2.40
2019-04-28T23:36:02.331Z,2.40
2019-04-28T23:38:30.787Z,2.60
2019-04-28T23:41:00.987Z,2.20
2019-04-28T23:43:29.433Z,2.57
2019-04-28T23:45:57.980Z,3.00
2019-04-28T23:48:26.536Z,2.50
2019-04-28T23:51:02.399Z,2.70
2019-04-28T23:53:32.515Z,3.40
2019-04-28T23:56:01.075Z,3.10
2019-04-28T23:58:29.638Z,2.80
